Time;durP1;ratioP1;P1;durP2;ratioP2;P2;SDS_P1;SDS_P2;PMS_P1;PMS_P2;Temp;Humidity;BMP_temperature;BMP_pressure;BME280_temperature;BME280_humidity;BME280_pressure;Samples;Min_cycle;Max_cycle;Signal;HPM_P1;HPM_P2
2022/08/29 00:00:15;;;;;;;;;;;;;;;15.37;78.86;102227.44;5040463;28;20043;-76
2022/08/29 00:02:40;;;;;;;;;;;;;;;15.36;78.85;102225.69;5040734;28;19928;-76
2022/08/29 00:05:06;;;;;;;;;;;;;;;15.36;78.67;102229.22;5028751;28;19924;-76
2022/08/29 00:07:32;;;;;;;;;;;;;;;15.36;78.47;102231.88;5040309;28;19974;-77
2022/08/29 00:09:58;;;;;;;;;;;;;;;15.37;79.00;102235.44;5021403;28;19978;-76
2022/08/29 00:12:24;;;;;;;;;;;;;;;15.37;78.99;102227.44;5002568;28;19947;-75
2022/08/29 00:14:50;;;;;;;;;;;;;;;15.38;79.14;102229.16;5033225;28;20291;-76
2022/08/29 00:17:16;;;;;;;;;;;;;;;15.39;79.27;102231.75;5038178;28;20413;-76
2022/08/29 00:19:41;;;;;;;;;;;;;;;15.39;79.14;102230.88;5015470;28;20398;-76
2022/08/29 00:22:06;;;;;;;;;;;;;;;15.39;79.46;102220.22;5038433;28;19920;-76
2022/08/29 00:24:32;;;;;;;;;;;;;;;15.38;79.55;102216.69;5035065;28;19976;-75
2022/08/29 00:26:59;;;;;;;;;;;;;;;15.39;79.81;102220.22;5037051;28;19924;-76
2022/08/29 00:29:25;;;;;;;;;;;;;;;15.39;80.06;102225.56;5040639;28;19974;-76
2022/08/29 00:31:50;;;;;;;;;;;;;;;15.38;80.16;102221.16;5004479;28;20074;-76
2022/08/29 00:34:16;;;;;;;;;;;;;;;15.37;80.05;102217.63;5037673;28;19929;-76
2022/08/29 00:36:41;;;;;;;;;;;;;;;15.38;80.26;102215.81;5035672;28;20046;-77
2022/08/29 00:39:07;;;;;;;;;;;;;;;15.37;80.38;102217.63;5023902;28;20013;-76
2022/08/29 00:41:32;;;;;;;;;;;;;;;15.38;80.18;102218.47;5029730;28;19936;-77
2022/08/29 00:44:00;;;;;;;;;;;;;;;15.37;80.26;102219.41;5041480;28;19929;-76
2022/08/29 00:46:46;;;;;;;;;;;;;;;15.37;80.14;102222.09;5029300;28;20023;-77
2022/08/29 00:49:39;;;;;;;;;;;;;;;15.39;80.13;102222.88;5015715;28;20184;-77
2022/08/29 00:52:24;;;;;;;;;;;;;;;15.38;79.94;102219.38;5007794;28;20676;-77
2022/08/29 00:54:50;;;;;;;;;;;;;;;15.39;79.85;102220.22;5033986;28;20314;-77
2022/08/29 00:57:17;;;;;;;;;;;;;;;15.38;79.85;102222.03;5039080;28;20302;-77
2022/08/29 00:59:45;;;;;;;;;;;;;;;15.38;80.07;102226.50;5015623;28;20360;-77
2022/08/29 01:02:10;;;;;;;;;;;;;;;15.39;80.10;102231.75;5021057;28;19921;-77
2022/08/29 01:04:36;;;;;;;;;;;;;;;15.40;79.87;102221.94;5034412;28;19963;-77
2022/08/29 01:07:02;;;;;;;;;;;;;;;15.40;79.91;102227.28;5036473;28;19924;-77
2022/08/29 01:09:27;;;;;;;;;;;;;;;15.42;79.97;102236.09;5015322;28;19979;-77
2022/08/29 01:14:38;;;;;;;;;;;;;;;15.42;79.81;102242.28;5013882;28;19925;-76
2022/08/29 01:17:03;;;;;;;;;;;;;;;15.40;79.80;102232.63;5022688;28;19925;-76
2022/08/29 01:19:31;;;;;;;;;;;;;;;15.39;79.86;102230.88;5007132;28;19964;-77
2022/08/29 01:22:11;;;;;;;;;;;;;;;15.39;79.79;102228.22;5018024;28;19950;-77
2022/08/29 01:24:38;;;;;;;;;;;;;;;15.37;80.21;102230.97;5022749;28;20529;-77
2022/08/29 01:27:04;;;;;;;;;;;;;;;15.38;80.41;102234.50;5011509;28;19928;-77
2022/08/29 01:29:29;;;;;;;;;;;;;;;15.37;80.53;102243.44;5017958;28;19921;-76
2022/08/29 01:31:54;;;;;;;;;;;;;;;15.36;81.08;102242.56;5024907;28;20424;-76
2022/08/29 01:34:20;;;;;;;;;;;;;;;15.34;80.94;102242.66;5012484;28;19927;-76
2022/08/29 01:36:52;;;;;;;;;;;;;;;15.34;81.21;102245.31;5032050;28;19954;-76
2022/08/29 01:39:19;;;;;;;;;;;;;;;15.32;81.37;102241.81;5031980;28;19921;-77
2022/08/29 01:41:44;;;;;;;;;;;;;;;15.32;81.60;102240.97;5030669;28;19929;-76
2022/08/29 01:44:11;;;;;;;;;;;;;;;15.31;81.80;102241.91;5032760;28;19959;-76
2022/08/29 01:46:37;;;;;;;;;;;;;;;15.30;81.14;102241.03;5022063;28;19931;-77
2022/08/29 01:49:03;;;;;;;;;;;;;;;15.30;81.14;102243.69;5030429;28;19921;-76
2022/08/29 01:51:29;;;;;;;;;;;;;;;15.31;81.16;102240.09;5032818;28;20078;-76
2022/08/29 01:53:54;;;;;;;;;;;;;;;15.31;81.14;102240.09;5031330;28;20027;-77
2022/08/29 01:56:24;;;;;;;;;;;;;;;15.31;81.16;102242.75;5031718;28;19931;-77
2022/08/29 01:58:50;;;;;;;;;;;;;;;15.32;81.26;102247.16;5034643;28;19924;-77
2022/08/29 02:01:16;;;;;;;;;;;;;;;15.31;81.31;102242.75;5019617;28;19921;-77
2022/08/29 02:03:41;;;;;;;;;;;;;;;15.31;81.85;102248.09;5005934;28;19966;-76
2022/08/29 02:06:10;;;;;;;;;;;;;;;15.30;82.01;102237.47;5028770;28;19924;-77
2022/08/29 02:08:39;;;;;;;;;;;;;;;15.30;82.17;102232.16;5021700;28;19935;-77
2022/08/29 02:11:08;;;;;;;;;;;;;;;15.29;82.20;102236.63;5005410;28;19935;-77
2022/08/29 02:13:38;;;;;;;;;;;;;;;15.29;82.40;102243.75;5014190;28;20376;-77
2022/08/29 02:16:03;;;;;;;;;;;;;;;15.30;82.32;102249.03;4996965;28;19926;-77
2022/08/29 02:18:28;;;;;;;;;;;;;;;15.30;82.79;102243.69;5020650;28;20383;-77
2022/08/29 02:20:54;;;;;;;;;;;;;;;15.31;82.93;102242.75;5018597;28;19924;-77
2022/08/29 02:23:19;;;;;;;;;;;;;;;15.31;83.16;102241.91;5018835;28;20010;-77
2022/08/29 02:25:46;;;;;;;;;;;;;;;15.31;83.17;102240.09;5019460;28;21826;-77
2022/08/29 02:28:13;;;;;;;;;;;;;;;15.31;83.42;102240.09;5019308;28;20099;-77
2022/08/29 02:30:43;;;;;;;;;;;;;;;15.29;83.45;102241.09;5000329;28;19921;-77
2022/08/29 02:33:14;;;;;;;;;;;;;;;15.29;83.71;102246.44;5018472;28;19929;-77
2022/08/29 02:35:40;;;;;;;;;;;;;;;15.30;83.68;102245.50;5006289;28;19925;-76
2022/08/29 02:38:06;;;;;;;;;;;;;;;15.28;83.36;102250.91;5017762;28;20360;-74
2022/08/29 02:40:32;;;;;;;;;;;;;;;15.28;83.58;102245.56;5014870;28;19991;-78
2022/08/29 02:42:58;;;;;;;;;;;;;;;15.28;83.53;102250.91;4983102;28;20264;-78
2022/08/29 02:45:23;;;;;;;;;;;;;;;15.30;83.86;102249.03;4998343;28;19922;-76
2022/08/29 02:47:48;;;;;;;;;;;;;;;15.30;84.11;102249.03;5011172;28;19979;-77
2022/08/29 02:50:14;;;;;;;;;;;;;;;15.30;83.95;102238.38;5018547;28;19987;-77
2022/08/29 02:52:40;;;;;;;;;;;;;;;15.30;83.98;102242.81;5019431;28;20271;-77
2022/08/29 02:55:07;;;;;;;;;;;;;;;15.30;83.95;102248.16;4998922;28;20379;-78
2022/08/29 02:57:32;;;;;;;;;;;;;;;15.30;84.00;102241.03;5003965;28;19936;-77
2022/08/29 02:59:57;;;;;;;;;;;;;;;15.29;84.31;102238.41;5018270;28;20387;-77
2022/08/29 03:02:23;;;;;;;;;;;;;;;15.29;83.90;102233.09;5007460;28;20093;-78
2022/08/29 03:04:48;;;;;;;;;;;;;;;15.29;84.15;102231.31;5013544;28;20052;-77
2022/08/29 03:07:14;;;;;;;;;;;;;;;15.29;84.33;102230.41;5011341;28;19931;-77
2022/08/29 03:09:39;;;;;;;;;;;;;;;15.30;84.65;102237.47;5014468;28;19948;-77
2022/08/29 03:12:04;;;;;;;;;;;;;;;15.30;84.52;102222.34;5026197;28;19928;-77
2022/08/29 03:14:30;;;;;;;;;;;;;;;15.31;84.68;102233.91;5034769;28;20418;-77
2022/08/29 03:16:55;;;;;;;;;;;;;;;15.33;85.03;102237.38;5033800;28;19928;-77
2022/08/29 03:19:21;;;;;;;;;;;;;;;15.33;84.87;102232.03;5017284;28;19924;-77
2022/08/29 03:21:47;;;;;;;;;;;;;;;15.34;85.12;102229.31;5022162;28;19924;-77
2022/08/29 03:24:12;;;;;;;;;;;;;;;15.34;84.87;102229.31;5034764;28;19929;-77
2022/08/29 03:26:37;;;;;;;;;;;;;;;15.34;85.06;102218.63;5034711;28;20372;-77
2022/08/29 03:29:03;;;;;;;;;;;;;;;15.37;85.22;102222.09;5036373;28;20285;-77
2022/08/29 03:31:28;;;;;;;;;;;;;;;15.37;85.21;102217.63;5034941;28;19925;-77
2022/08/29 03:33:54;;;;;;;;;;;;;;;15.36;85.34;102221.22;5034277;28;19925;-77
2022/08/29 03:36:19;;;;;;;;;;;;;;;15.36;85.43;102223.88;5033304;28;20287;-76
2022/08/29 03:38:45;;;;;;;;;;;;;;;15.33;85.57;102222.25;5034004;28;19976;-77
2022/08/29 03:41:11;;;;;;;;;;;;;;;15.34;86.03;102223.97;5025753;28;19933;-77
2022/08/29 03:43:36;;;;;;;;;;;;;;;15.33;86.34;102224.91;5005372;28;19927;-77
2022/08/29 03:46:02;;;;;;;;;;;;;;;15.34;86.38;102220.41;5033323;28;19920;-76
2022/08/29 03:48:27;;;;;;;;;;;;;;;15.33;86.49;102227.56;5033796;28;20298;-77
2022/08/29 03:50:53;;;;;;;;;;;;;;;15.32;86.54;102220.47;5032405;28;20431;-76
2022/08/29 03:53:19;;;;;;;;;;;;;;;15.33;86.78;102219.56;5036096;28;20011;-77
2022/08/29 03:55:45;;;;;;;;;;;;;;;15.33;87.01;102221.38;5033751;28;19925;-77
2022/08/29 03:58:10;;;;;;;;;;;;;;;15.33;87.38;102221.38;5036067;28;19967;-75
2022/08/29 04:00:36;;;;;;;;;;;;;;;15.32;87.46;102215.16;5032704;28;19920;-76
2022/08/29 04:03:01;;;;;;;;;;;;;;;15.31;87.61;102210.75;5036504;28;20663;-76
2022/08/29 04:05:26;;;;;;;;;;;;;;;15.31;87.44;102213.41;5032573;28;21716;-78
2022/08/29 04:07:56;;;;;;;;;;;;;;;15.32;87.61;102217.81;5035893;28;19921;-77
2022/08/29 04:10:25;;;;;;;;;;;;;;;15.33;87.51;102219.56;5017725;28;20376;-77
2022/08/29 04:12:50;;;;;;;;;;;;;;;15.34;87.98;102218.63;5015901;28;20020;-76
2022/08/29 04:15:16;;;;;;;;;;;;;;;15.35;87.95;102224.81;5017295;28;19925;-76
2022/08/29 04:17:42;;;;;;;;;;;;;;;15.35;88.38;102224.81;5001387;28;19921;-76
2022/08/29 04:20:08;;;;;;;;;;;;;;;15.36;88.43;102223.03;5021599;28;19925;-76
2022/08/29 04:22:34;;;;;;;;;;;;;;;15.34;88.82;102226.63;5019526;28;20024;-76
2022/08/29 04:24:59;;;;;;;;;;;;;;;15.36;89.03;102226.53;5020019;28;19920;-76
2022/08/29 04:27:25;;;;;;;;;;;;;;;15.37;89.25;102227.44;5011395;28;20670;-76
2022/08/29 04:29:50;;;;;;;;;;;;;;;15.37;89.60;102222.09;4981442;28;20170;-76
2022/08/29 04:32:16;;;;;;;;;;;;;;;15.36;89.44;102226.53;5001852;28;19990;-77
2022/08/29 04:34:41;;;;;;;;;;;;;;;15.36;90.00;102231.88;5019921;28;19929;-77
2022/08/29 04:37:07;;;;;;;;;;;;;;;15.37;90.16;102228.31;5019628;28;19925;-77
2022/08/29 04:39:33;;;;;;;;;;;;;;;15.38;90.49;102229.16;5001453;28;19998;-77
2022/08/29 04:42:00;;;;;;;;;;;;;;;15.38;90.45;102230.03;5020122;28;19969;-77
2022/08/29 04:44:26;;;;;;;;;;;;;;;15.39;90.47;102220.22;5016861;28;19933;-77
2022/08/29 04:46:51;;;;;;;;;;;;;;;15.38;91.05;102231.81;5002930;28;20062;-77
2022/08/29 04:49:16;;;;;;;;;;;;;;;15.37;90.92;102225.63;5002594;28;21307;-77
2022/08/29 04:51:42;;;;;;;;;;;;;;;15.38;91.11;102234.50;5021266;28;20287;-77
2022/08/29 04:54:07;;;;;;;;;;;;;;;15.38;91.40;102243.38;5020653;28;19924;-77
2022/08/29 04:56:33;;;;;;;;;;;;;;;15.40;91.95;102243.28;4984327;28;19925;-77
2022/08/29 04:58:58;;;;;;;;;;;;;;;15.41;92.39;102245.06;5001107;28;19922;-77
2022/08/29 05:01:24;;;;;;;;;;;;;;;15.42;92.61;102241.44;5019589;28;19921;-77
2022/08/29 05:03:51;;;;;;;;;;;;;;;15.44;92.88;102242.22;5001327;28;19944;-76
2022/08/29 05:06:17;;;;;;;;;;;;;;;15.45;93.06;102246.63;4968403;28;19925;-76
2022/08/29 05:08:44;;;;;;;;;;;;;;;15.44;92.94;102239.56;5019397;28;19964;-76
2022/08/29 05:11:11;;;;;;;;;;;;;;;15.44;93.26;102239.56;5004070;28;19933;-76
2022/08/29 05:13:37;;;;;;;;;;;;;;;15.44;93.34;102240.44;5015829;28;20038;-76
2022/08/29 05:16:06;;;;;;;;;;;;;;;15.45;93.34;102247.50;5014832;28;20031;-77
2022/08/29 05:18:31;;;;;;;;;;;;;;;15.46;93.61;102241.22;4999713;28;20405;-77
2022/08/29 05:20:56;;;;;;;;;;;;;;;15.47;94.20;102242.09;5014464;28;19924;-77
2022/08/29 05:23:22;;;;;;;;;;;;;;;15.48;94.21;102241.19;5015984;28;19927;-77
2022/08/29 05:25:53;;;;;;;;;;;;;;;15.49;93.78;102250.91;5014341;28;21378;-77
2022/08/29 05:28:19;;;;;;;;;;;;;;;15.51;94.39;102253.53;4999603;28;19995;-77
2022/08/29 05:30:44;;;;;;;;;;;;;;;15.53;94.97;102248.97;5015795;28;20682;-77
2022/08/29 05:33:10;;;;;;;;;;;;;;;15.56;95.87;102252.38;4980476;28;19962;-77
2022/08/29 05:35:35;;;;;;;;;;;;;;;15.58;95.42;102252.31;4994179;28;21267;-77
2022/08/29 05:38:00;;;;;;;;;;;;;;;15.61;95.12;102260.16;5014941;28;19928;-76
2022/08/29 05:40:26;;;;;;;;;;;;;;;15.61;95.49;102253.03;5015451;28;19995;-76
2022/08/29 05:42:51;;;;;;;;;;;;;;;15.63;94.44;102262.78;5000025;28;20019;-76
2022/08/29 05:45:17;;;;;;;;;;;;;;;15.65;95.38;102268.91;5018318;28;19939;-77
2022/08/29 05:47:42;;;;;;;;;;;;;;;15.67;94.37;102272.38;4994515;28;19959;-77
2022/08/29 05:50:08;;;;;;;;;;;;;;;15.69;95.23;102275.84;5004357;28;19917;-77
2022/08/29 05:52:33;;;;;;;;;;;;;;;15.69;95.25;102270.50;4982480;28;19925;-78
2022/08/29 05:54:59;;;;;;;;;;;;;;;15.71;95.44;102269.53;5004578;28;19921;-77
2022/08/29 05:57:25;;;;;;;;;;;;;;;15.74;95.17;102273.81;5014341;28;20060;-77
2022/08/29 05:59:51;;;;;;;;;;;;;;;15.74;95.18;102276.50;5011739;28;19933;-77
2022/08/29 06:02:16;;;;;;;;;;;;;;;15.77;96.51;102279.03;5011099;28;19925;-77
2022/08/29 06:04:41;;;;;;;;;;;;;;;15.82;95.72;102279.72;5010058;28;19925;-77
2022/08/29 06:07:07;;;;;;;;;;;;;;;15.84;95.81;102276.94;5014753;28;19932;-77
2022/08/29 06:09:33;;;;;;;;;;;;;;;15.85;94.77;102274.22;5010015;28;19983;-77
2022/08/29 06:11:58;;;;;;;;;;;;;;;15.86;94.71;102283.13;4997412;28;19931;-77
2022/08/29 06:14:24;;;;;;;;;;;;;;;15.88;95.60;102273.22;5001306;28;19920;-77
2022/08/29 06:16:49;;;;;;;;;;;;;;;15.89;96.33;102278.50;5039680;28;19921;-77
2022/08/29 06:19:15;;;;;;;;;;;;;;;15.93;96.09;102286.38;5035665;28;19925;-77
2022/08/29 06:21:40;;;;;;;;;;;;;;;15.97;95.88;102282.66;5037286;28;19960;-76
2022/08/29 06:24:05;;;;;;;;;;;;;;;16.01;96.59;102286.91;5041902;28;19931;-77
2022/08/29 06:26:31;;;;;;;;;;;;;;;16.07;96.32;102291.13;5040788;28;20322;-77
2022/08/29 06:28:56;;;;;;;;;;;;;;;16.13;96.40;102290.84;5022499;28;19920;-76
2022/08/29 06:31:25;;;;;;;;;;;;;;;16.18;95.26;102285.28;5024224;28;19924;-76
2022/08/29 06:33:52;;;;;;;;;;;;;;;16.21;95.96;102279.78;5041316;28;19920;-77
2022/08/29 06:36:17;;;;;;;;;;;;;;;16.24;95.97;102293.84;5041399;28;19962;-76
2022/08/29 06:38:43;;;;;;;;;;;;;;;16.30;96.07;102287.38;5039267;28;19924;-77
2022/08/29 06:41:09;;;;;;;;;;;;;;;16.36;96.36;102291.56;5041190;28;19974;-76
2022/08/29 06:43:35;;;;;;;;;;;;;;;16.41;95.87;102285.03;5042378;28;19932;-77
2022/08/29 06:46:01;;;;;;;;;;;;;;;16.50;96.37;102281.06;5022291;28;20284;-77
2022/08/29 06:48:26;;;;;;;;;;;;;;;16.59;96.88;102290.47;5036094;28;20303;-77
2022/08/29 06:50:51;;;;;;;;;;;;;;;16.65;95.06;102281.28;5039387;28;19957;-77
2022/08/29 06:53:17;;;;;;;;;;;;;;;16.74;96.09;102285.31;5040527;28;20574;-78
2022/08/29 06:55:42;;;;;;;;;;;;;;;16.81;95.99;102284.94;5039911;28;19920;-76
2022/08/29 06:58:08;;;;;;;;;;;;;;;16.86;96.47;102283.84;5021403;28;19924;-76
2022/08/29 07:00:33;;;;;;;;;;;;;;;16.93;95.72;102285.25;5041509;28;19925;-77
2022/08/29 07:02:59;;;;;;;;;;;;;;;17.02;95.87;102286.66;5037520;28;19927;-77
2022/08/29 07:05:28;;;;;;;;;;;;;;;17.09;95.18;102280.94;5039645;28;19920;-77
2022/08/29 07:07:53;;;;;;;;;;;;;;;17.18;95.10;102289.41;5041232;28;19928;-76
2022/08/29 07:10:18;;;;;;;;;;;;;;;17.27;94.64;102288.09;5039386;28;19925;-77
2022/08/29 07:12:44;;;;;;;;;;;;;;;17.34;94.63;102279.66;5024977;28;20208;-77
2022/08/29 07:15:09;;;;;;;;;;;;;;;17.43;94.44;102291.69;5021023;28;19928;-77
2022/08/29 07:17:35;;;;;;;;;;;;;;;17.52;94.85;102279.66;5001741;28;20011;-76
2022/08/29 07:20:00;;;;;;;;;;;;;;;17.55;93.73;102274.16;5022110;28;19945;-77
2022/08/29 07:22:25;;;;;;;;;;;;;;;17.57;92.86;102274.94;5004993;28;20394;-76
2022/08/29 07:24:52;;;;;;;;;;;;;;;17.57;93.76;102271.38;5002658;28;19925;-77
2022/08/29 07:27:17;;;;;;;;;;;;;;;17.56;92.47;102275.88;5002191;28;19925;-76
2022/08/29 07:29:43;;;;;;;;;;;;;;;17.53;93.37;102268.00;5023242;28;19925;-77
2022/08/29 07:32:08;;;;;;;;;;;;;;;17.56;94.03;102278.56;5021261;28;19928;-77
2022/08/29 07:34:35;;;;;;;;;;;;;;;17.64;93.30;102288.84;5018992;28;19928;-77
2022/08/29 07:37:01;;;;;;;;;;;;;;;17.68;93.73;102277.03;5002937;28;19924;-77
2022/08/29 07:39:26;;;;;;;;;;;;;;;17.73;93.54;102283.03;5021949;28;20399;-77
2022/08/29 07:41:51;;;;;;;;;;;;;;;17.84;94.03;102281.56;5021392;28;19932;-77
2022/08/29 07:44:17;;;;;;;;;;;;;;;17.95;92.45;102278.31;5021031;28;19929;-76
2022/08/29 07:46:43;;;;;;;;;;;;;;;17.99;91.82;102280.75;5022273;28;20395;-77
2022/08/29 07:49:08;;;;;;;;;;;;;;;18.09;91.52;102281.13;5006333;28;20363;-77
2022/08/29 07:51:34;;;;;;;;;;;;;;;18.19;91.85;102284.16;5023437;28;19921;-77
2022/08/29 07:54:00;;;;;;;;;;;;;;;18.23;90.15;102292.91;5023026;28;19968;-77
2022/08/29 07:56:26;;;;;;;;;;;;;;;18.24;90.05;102284.78;5000366;28;19952;-77
2022/08/29 07:58:52;;;;;;;;;;;;;;;18.28;89.79;102286.34;4986552;28;20300;-77
2022/08/29 08:01:18;;;;;;;;;;;;;;;18.30;89.13;102288.97;5002138;28;19932;-77
2022/08/29 08:03:43;;;;;;;;;;;;;;;18.34;89.14;102289.66;5002690;28;19924;-77
2022/08/29 08:06:09;;;;;;;;;;;;;;;18.43;89.14;102295.34;5001966;28;19991;-77
2022/08/29 08:08:38;;;;;;;;;;;;;;;18.49;87.89;102304.00;5002318;28;19939;-77
2022/08/29 08:11:04;;;;;;;;;;;;;;;18.51;87.72;102302.97;5017970;28;19929;-76
2022/08/29 08:13:30;;;;;;;;;;;;;;;18.51;87.05;102312.84;5032522;28;20015;-76
2022/08/29 08:15:55;;;;;;;;;;;;;;;18.52;87.40;102310.06;5027528;28;20410;-77
2022/08/29 08:18:24;;;;;;;;;;;;;;;18.53;87.24;102309.09;5023500;28;19925;-75
2022/08/29 08:20:50;;;;;;;;;;;;;;;18.52;86.55;102309.22;5015843;28;20055;-78
2022/08/29 08:23:16;;;;;;;;;;;;;;;18.52;86.46;102312.72;5032835;28;19933;-77
2022/08/29 08:25:41;;;;;;;;;;;;;;;18.55;86.10;102315.25;5022335;28;19932;-76
2022/08/29 08:28:07;;;;;;;;;;;;;;;18.64;86.88;102307.63;5035621;28;19936;-77
2022/08/29 08:30:33;;;;;;;;;;;;;;;18.75;86.57;102302.53;5005820;28;19998;-75
2022/08/29 08:33:00;;;;;;;;;;;;;;;18.81;85.27;102304.88;5030940;28;19929;-75
2022/08/29 08:35:26;;;;;;;;;;;;;;;18.78;85.03;102310.41;5021402;28;19954;-76
2022/08/29 08:37:52;;;;;;;;;;;;;;;18.75;85.83;102305.22;5028854;28;19928;-77
2022/08/29 08:40:22;;;;;;;;;;;;;;;18.78;86.45;102298.81;5015848;28;19929;-77
2022/08/29 08:42:49;;;;;;;;;;;;;;;18.90;86.70;102305.28;5029153;28;19921;-77
2022/08/29 08:45:14;;;;;;;;;;;;;;;19.01;86.36;102305.50;4998345;28;20382;-77
2022/08/29 08:47:59;;;;;;;;;;;;;;;19.17;85.81;102299.28;5031761;28;19924;-77
2022/08/29 08:50:45;;;;;;;;;;;;;;;19.25;85.15;102299.69;5028656;28;20395;-77
2022/08/29 08:53:16;;;;;;;;;;;;;;;19.19;83.56;102305.44;5033612;28;20430;-77
2022/08/29 08:55:49;;;;;;;;;;;;;;;19.14;83.84;102301.19;5024624;28;19944;-77
2022/08/29 08:58:23;;;;;;;;;;;;;;;19.19;84.06;102300.06;5038297;28;20500;-77
2022/08/29 09:00:54;;;;;;;;;;;;;;;19.34;84.29;102306.34;5018582;28;19920;-77
2022/08/29 09:03:32;;;;;;;;;;;;;;;19.59;83.72;102294.97;5037362;28;19928;-77
2022/08/29 09:06:06;;;;;;;;;;;;;;;19.69;81.84;102300.66;5034210;28;19927;-77
2022/08/29 09:08:50;;;;;;;;;;;;;;;19.71;80.93;102300.56;5000847;28;19921;-76
2022/08/29 09:11:25;;;;;;;;;;;;;;;19.67;80.76;102305.25;5022684;28;19968;-77
2022/08/29 09:13:54;;;;;;;;;;;;;;;19.73;81.20;102294.13;5016866;28;19921;-77
2022/08/29 09:16:30;;;;;;;;;;;;;;;19.99;80.19;102293.50;4998552;28;19928;-76
2022/08/29 09:18:58;;;;;;;;;;;;;;;20.16;80.96;102295.97;4995257;28;19982;-77
2022/08/29 09:21:24;;;;;;;;;;;;;;;20.10;80.47;102299.03;5012136;28;20299;-77
2022/08/29 09:23:50;;;;;;;;;;;;;;;19.98;80.82;102300.69;4995476;28;19960;-76
2022/08/29 09:26:17;;;;;;;;;;;;;;;19.92;80.25;102296.53;4989792;28;19939;-76
2022/08/29 09:28:42;;;;;;;;;;;;;;;19.90;80.47;102298.47;4998863;28;19924;-76
2022/08/29 09:31:21;;;;;;;;;;;;;;;19.87;80.15;102292.41;5028974;28;20648;-76
2022/08/29 09:33:51;;;;;;;;;;;;;;;19.89;80.37;102296.72;5017592;28;19952;-76
2022/08/29 09:36:32;;;;;;;;;;;;;;;19.96;78.62;102297.25;5016768;28;19960;-78
2022/08/29 09:39:13;;;;;;;;;;;;;;;20.03;79.01;102303.06;4997331;28;21343;-77
2022/08/29 09:41:38;;;;;;;;;;;;;;;20.03;78.68;102303.94;5004951;28;19936;-76
2022/08/29 09:44:04;;;;;;;;;;;;;;;20.08;78.78;102301.84;4975161;28;19954;-75
2022/08/29 09:46:30;;;;;;;;;;;;;;;20.16;78.49;102301.34;4979186;28;20261;-76
2022/08/29 09:49:01;;;;;;;;;;;;;;;20.33;77.88;102304.78;4993797;28;19953;-76
2022/08/29 09:51:27;;;;;;;;;;;;;;;20.37;78.48;102308.16;4998414;28;19951;-76
2022/08/29 09:53:53;;;;;;;;;;;;;;;20.37;78.57;102300.94;4989515;28;19921;-77
2022/08/29 09:56:21;;;;;;;;;;;;;;;20.34;79.56;102307.41;5001159;28;19921;-76
2022/08/29 09:59:01;;;;;;;;;;;;;;;20.30;80.33;102302.28;5016083;28;19955;-77
2022/08/29 10:01:26;;;;;;;;;;;;;;;20.11;82.10;102303.47;5008402;28;20636;-77
2022/08/29 10:04:01;;;;;;;;;;;;;;;19.98;82.21;102308.75;5015124;28;20032;-77
2022/08/29 10:06:31;;;;;;;;;;;;;;;19.76;83.31;102314.56;4988850;28;20342;-77
2022/08/29 10:09:04;;;;;;;;;;;;;;;19.63;84.80;102309.97;5015692;28;20502;-77
2022/08/29 10:11:38;;;;;;;;;;;;;;;19.49;84.81;102312.59;5016977;28;19928;-78
2022/08/29 10:14:14;;;;;;;;;;;;;;;19.43;85.63;102311.16;5021982;28;19955;-79
2022/08/29 10:18:19;;;;;;;;;;;;;;;19.58;86.31;102313.84;5003046;28;20020;-79
2022/08/29 10:19:44;;;;;;;;;;;;;;;19.86;86.18;102314.84;5007758;28;19920;-78
2022/08/29 10:22:28;;;;;;;;;;;;;;;19.92;84.45;102315.34;5004678;28;19928;-79
2022/08/29 10:24:53;;;;;;;;;;;;;;;19.88;84.08;102308.44;5021926;28;20283;-79
2022/08/29 10:27:28;;;;;;;;;;;;;;;19.83;83.01;102304.31;5018847;28;19925;-80
2022/08/29 10:30:00;;;;;;;;;;;;;;;19.64;82.20;102306.31;5003557;28;19921;-80
2022/08/29 10:32:31;;;;;;;;;;;;;;;19.65;82.68;102299.97;5021478;28;19963;-80
2022/08/29 10:35:03;;;;;;;;;;;;;;;19.74;83.26;102303.03;5019836;28;19929;-78
2022/08/29 10:37:51;;;;;;;;;;;;;;;19.84;83.84;102301.53;4999379;28;19920;-77
2022/08/29 10:40:23;;;;;;;;;;;;;;;19.91;83.54;102307.38;5006840;28;19936;-77
2022/08/29 10:42:49;;;;;;;;;;;;;;;19.98;83.50;102307.91;5020863;28;19948;-78
2022/08/29 10:45:18;;;;;;;;;;;;;;;20.00;83.13;102297.91;5016048;28;19925;-80
2022/08/29 10:47:51;;;;;;;;;;;;;;;20.07;82.85;102308.19;5001512;28;19922;-79
2022/08/29 10:50:21;;;;;;;;;;;;;;;20.08;82.31;102303.66;5020668;28;20124;-78
2022/08/29 10:53:05;;;;;;;;;;;;;;;20.12;82.97;102301.63;5019828;28;20208;-78
2022/08/29 10:55:34;;;;;;;;;;;;;;;20.17;81.67;102295.03;5005424;28;21717;-77
2022/08/29 10:58:08;;;;;;;;;;;;;;;20.16;81.95;102293.28;5020016;28;19924;-78
2022/08/29 11:00:39;;;;;;;;;;;;;;;20.19;81.43;102293.09;5019107;28;19925;-78
2022/08/29 11:03:10;;;;;;;;;;;;;;;20.17;81.24;102300.41;4984136;28;19921;-80
2022/08/29 11:05:40;;;;;;;;;;;;;;;20.27;82.75;102299.81;5022301;28;19925;-78
2022/08/29 11:08:13;;;;;;;;;;;;;;;20.40;81.77;102299.88;5019278;28;21270;-78
2022/08/29 11:10:40;;;;;;;;;;;;;;;20.44;81.55;102296.88;5000230;28;20013;-79
2022/08/29 11:13:11;;;;;;;;;;;;;;;20.52;81.94;102293.69;4984935;28;20030;-78
2022/08/29 11:15:40;;;;;;;;;;;;;;;20.71;82.10;102290.66;5003182;28;19927;-78
2022/08/29 11:18:11;;;;;;;;;;;;;;;20.70;81.12;102278.16;5024282;28;20022;-78
2022/08/29 11:20:41;;;;;;;;;;;;;;;20.68;81.93;102282.81;5012331;28;19985;-78
2022/08/29 11:23:08;;;;;;;;;;;;;;;20.61;81.14;102292.25;5002925;28;19943;-78
2022/08/29 11:25:34;;;;;;;;;;;;;;;20.48;81.73;102293.03;5024299;28;19925;-79
2022/08/29 11:28:08;;;;;;;;;;;;;;;20.38;82.27;102294.63;5009160;28;19931;-79
2022/08/29 11:30:40;;;;;;;;;;;;;;;20.30;82.98;102305.84;4971092;28;19917;-79
2022/08/29 11:33:05;;;;;;;;;;;;;;;20.22;83.91;102309.03;5018425;28;19968;-79
2022/08/29 11:35:34;;;;;;;;;;;;;;;20.17;84.17;102305.78;5022232;28;20056;-79
2022/08/29 11:38:03;;;;;;;;;;;;;;;20.09;84.75;102302.69;5008567;28;19931;-78
2022/08/29 11:40:47;;;;;;;;;;;;;;;20.02;85.16;102306.72;5023180;28;19926;-78
2022/08/29 11:43:13;;;;;;;;;;;;;;;19.94;85.45;102305.34;5021586;28;19929;-79
2022/08/29 11:45:42;;;;;;;;;;;;;;;19.86;85.14;102296.03;4992527;28;20410;-78
2022/08/29 11:48:26;;;;;;;;;;;;;;;19.85;84.98;102303.25;4991495;28;20421;-78
2022/08/29 11:50:51;;;;;;;;;;;;;;;19.81;86.16;102299.91;5020961;28;20456;-79
2022/08/29 11:53:21;;;;;;;;;;;;;;;19.84;86.47;102297.97;5021935;28;20626;-79
2022/08/29 11:56:05;;;;;;;;;;;;;;;19.84;86.03;102292.59;5021909;28;20050;-80
2022/08/29 11:58:31;;;;;;;;;;;;;;;19.80;85.56;102292.81;4996055;28;19947;-79
2022/08/29 12:00:58;;;;;;;;;;;;;;;19.77;85.08;102290.28;5016474;28;19926;-78
2022/08/29 12:03:33;;;;;;;;;;;;;;;19.77;85.20;102297.50;5005891;28;19925;-77
2022/08/29 12:06:01;;;;;;;;;;;;;;;19.72;85.04;102295.06;5018607;28;19924;-77
2022/08/29 12:08:31;;;;;;;;;;;;;;;19.72;85.32;102287.00;5022248;28;19931;-76
2022/08/29 12:10:57;;;;;;;;;;;;;;;19.67;85.78;102284.63;4999862;28;20161;-78
2022/08/29 12:13:41;;;;;;;;;;;;;;;19.69;85.95;102292.59;5015494;28;20588;-77
2022/08/29 12:16:10;;;;;;;;;;;;;;;19.70;86.11;102286.25;5035006;28;20753;-77
2022/08/29 12:18:49;;;;;;;;;;;;;;;19.70;85.98;102288.94;5040235;28;19983;-77
2022/08/29 12:21:53;;;;;;;;;;;;;;;19.79;86.34;102284.81;5047584;28;20420;-78
2022/08/29 12:24:26;;;;;;;;;;;;;;;19.84;84.81;102290.78;4974892;28;20389;-79
2022/08/29 12:26:51;;;;;;;;;;;;;;;19.90;84.95;102287.72;4957224;28;19921;-77
2022/08/29 12:29:17;;;;;;;;;;;;;;;19.97;84.84;102292.72;4989015;28;19971;-77
2022/08/29 12:31:52;;;;;;;;;;;;;;;20.02;85.33;102290.59;5035519;28;20403;-78
2022/08/29 12:34:30;;;;;;;;;;;;;;;20.06;84.25;102294.84;5038112;28;19947;-78
2022/08/29 12:36:57;;;;;;;;;;;;;;;20.00;84.82;102293.38;5037185;28;20275;-78
2022/08/29 12:39:26;;;;;;;;;;;;;;;19.98;85.63;102295.31;5037112;28;19921;-77
2022/08/29 12:41:54;;;;;;;;;;;;;;;19.89;85.40;102288.66;5037054;28;19970;-78